Lone Tree, Colorado
Current Conditions -  °F | °C
As of 10:53 AM on Wednesday 26 Nov 2014 (Local Time) from KAPA Reporting Station
Few Clouds Few Clouds  
Wind Chill: 32°   Ceiling: Unl
Heat Index: 37°   Visibility: 10mi
Dew Point: 22°   Wind: 7mph
Humidity: 54%   Direction: 60°ENE
Pressure: 30.18"   Gusts: NA
Location:  39.5742°N, 104.858°W
Report Text: KAPA 261753Z 06006KT 10SM FEW100 FEW150 FEW200 03/M06 A3018 RMK AO2 SLP241 T00281056 10028 21033 55005
Loading
Personal Weather Stations






























Interactive Weather Map New forecast layout! Learn more

10-Day Weather Forecast

Advertisements
Track Severe Weather on mobile